aviador You're here:

HESH Decoded Metar

SHARM EL SHEIKHI in EGYPT
Report Time2017-10-17 20:00:00
UTC Time2017-10-17 20:38:15
Flight Rules vfr VFR
Wind350° at 15 kt
W.Decomp.*RWY 04: 9.0 kt HW 12 kt LCW
W.Rank350° ranks 4
Current wind is above 350° avg. (9.1)
Visibility9999 m
Phenomena:N/A
Clouds:N/A
Expected CloudBase > 5,200 ft AGL from Temp-Dew spread
CeilingNone
Temp26°C (ISA +11)
Dew Point13°C (45% RH)
AAT21.6°C
QNH1012 hPa
Density Alt1,709 ft
Elevation164 ft
Report Wrong Elevation
Raw Report
METAR HESH 172000Z 35015KT CAVOK 26/13 Q1012 NOSIG=

Extra information for HESH:More info

Metar Taf Metar & Taf Last 4 Metars F.Rules Stats Wind Profile Meteogram Temp Stats Airport Information Weather charts Add Link Nearby VenuesMetar ALERT Operation Metar Decoded Social comments